createdAt,value
2023-02-15T00:00:16.375Z,72.00
2023-02-15T00:01:23.088Z,72.09
2023-02-15T00:02:25.215Z,72.20
2023-02-15T00:03:28.750Z,72.45
2023-02-15T00:04:46.978Z,72.13
2023-02-15T00:06:09.706Z,71.95
2023-02-15T00:07:21.416Z,71.98
2023-02-15T00:08:24.767Z,72.01
2023-02-15T00:09:26.319Z,72.33
2023-02-15T00:10:28.782Z,72.56
2023-02-15T00:11:44.493Z,72.29
2023-02-15T00:12:47.540Z,72.39
2023-02-15T00:13:59.389Z,72.52
2023-02-15T00:15:13.922Z,72.35
2023-02-15T00:16:16.100Z,72.50
2023-02-15T00:17:18.646Z,72.62
2023-02-15T00:18:21.420Z,72.18
2023-02-15T00:19:24.128Z,72.69
2023-02-15T00:20:25.689Z,72.31
2023-02-15T00:21:28.173Z,72.26
2023-02-15T00:22:30.641Z,72.42
2023-02-15T00:23:32.571Z,72.30
2023-02-15T00:24:35.467Z,72.75
2023-02-15T00:25:37.048Z,72.63
2023-02-15T00:26:41.638Z,72.78
2023-02-15T00:27:43.213Z,72.73
2023-02-15T00:28:45.682Z,72.64
2023-02-15T00:29:48.505Z,72.68
2023-02-15T00:30:54.946Z,72.41
2023-02-15T00:31:56.652Z,72.54
2023-02-15T00:32:59.311Z,72.75
2023-02-15T00:34:03.375Z,72.90
2023-02-15T00:35:08.514Z,72.44
2023-02-15T00:36:21.331Z,72.41
2023-02-15T00:37:24.168Z,72.70
2023-02-15T00:38:27.193Z,72.60
2023-02-15T00:39:29.991Z,72.78
2023-02-15T00:40:31.554Z,72.85
2023-02-15T00:41:34.762Z,72.67
2023-02-15T00:42:36.516Z,72.49
2023-02-15T00:43:39.534Z,72.62
2023-02-15T00:44:46.467Z,72.61
2023-02-15T00:45:49.323Z,72.57
2023-02-15T00:46:52.188Z,72.75
2023-02-15T00:47:54.807Z,72.58
2023-02-15T00:48:56.414Z,72.64
2023-02-15T00:49:58.957Z,72.85
2023-02-15T00:51:01.574Z,73.09
2023-02-15T00:52:04.293Z,72.68
2023-02-15T00:53:05.976Z,73.03
2023-02-15T00:54:11.483Z,72.87
2023-02-15T00:55:13.102Z,73.00
2023-02-15T00:56:15.936Z,73.08
2023-02-15T00:57:20.085Z,72.94
2023-02-15T00:58:23.000Z,72.85
2023-02-15T00:59:24.787Z,72.90
2023-02-15T01:00:27.310Z,73.06
2023-02-15T01:01:31.065Z,72.78
2023-02-15T01:02:34.895Z,72.80
2023-02-15T01:03:36.823Z,73.01
2023-02-15T01:04:42.524Z,73.00
2023-02-15T01:05:44.843Z,73.17
2023-02-15T01:06:47.478Z,73.18
2023-02-15T01:07:49.444Z,73.17
2023-02-15T01:08:54.090Z,73.28
2023-02-15T01:09:55.838Z,72.98
2023-02-15T01:10:58.814Z,72.77
2023-02-15T01:12:00.477Z,73.19
2023-02-15T01:13:03.345Z,73.12
2023-02-15T01:14:06.277Z,73.23
2023-02-15T01:15:09.523Z,73.32
2023-02-15T01:16:11.171Z,73.14
2023-02-15T01:17:15.394Z,73.42
2023-02-15T01:18:18.731Z,73.31
2023-02-15T01:19:21.262Z,73.06
2023-02-15T01:20:25.123Z,72.94
2023-02-15T01:21:28.004Z,73.17
2023-02-15T01:22:29.606Z,73.20
2023-02-15T01:23:32.122Z,73.29
2023-02-15T01:24:33.683Z,73.09
2023-02-15T01:25:37.222Z,72.97
2023-02-15T01:26:48.816Z,73.10
2023-02-15T01:27:51.659Z,73.11
2023-02-15T01:29:04.202Z,73.28
2023-02-15T01:30:16.845Z,73.01
2023-02-15T01:31:21.803Z,73.42
2023-02-15T01:32:23.840Z,73.27
2023-02-15T01:33:28.959Z,73.25
2023-02-15T01:34:31.180Z,73.41
2023-02-15T01:35:34.014Z,73.21
2023-02-15T01:36:45.565Z,73.21
2023-02-15T01:37:48.507Z,73.11
2023-02-15T01:38:50.571Z,73.17
2023-02-15T01:39:54.415Z,73.28
2023-02-15T01:41:16.689Z,73.20
2023-02-15T01:42:23.825Z,73.45
2023-02-15T01:43:41.112Z,73.46
2023-02-15T01:44:52.601Z,73.18
2023-02-15T01:45:54.327Z,73.60
2023-02-15T01:46:57.330Z,73.32
2023-02-15T01:48:02.806Z,73.34
2023-02-15T01:49:12.420Z,73.15
2023-02-15T01:50:19.676Z,73.18
2023-02-15T01:51:25.639Z,73.42
2023-02-15T01:52:27.416Z,73.36
2023-02-15T01:53:37.802Z,73.42
2023-02-15T01:54:41.712Z,73.44
2023-02-15T01:55:49.709Z,73.61
2023-02-15T01:56:51.708Z,73.52
2023-02-15T01:57:54.840Z,73.35
2023-02-15T01:59:00.617Z,73.52
2023-02-15T02:00:08.275Z,73.76
2023-02-15T02:01:23.455Z,73.64
2023-02-15T02:02:30.156Z,73.70
2023-02-15T02:03:43.396Z,73.58
2023-02-15T02:04:50.960Z,73.61
2023-02-15T02:05:53.064Z,73.70
2023-02-15T02:06:56.604Z,73.51
2023-02-15T02:08:01.240Z,73.76
2023-02-15T02:09:04.458Z,73.94
2023-02-15T02:10:08.154Z,73.83
2023-02-15T02:11:14.651Z,73.90
2023-02-15T02:12:17.635Z,73.57
2023-02-15T02:13:20.200Z,73.94
2023-02-15T02:14:24.672Z,73.79
2023-02-15T02:15:37.066Z,73.81
2023-02-15T02:16:44.658Z,73.68
2023-02-15T02:18:05.186Z,73.64
2023-02-15T02:19:41.219Z,73.78
2023-02-15T02:21:10.003Z,73.83
2023-02-15T02:22:58.724Z,74.22
2023-02-15T02:24:25.038Z,73.73
2023-02-15T02:26:01.225Z,74.07
2023-02-15T02:27:23.055Z,73.99
2023-02-15T02:28:47.384Z,73.95
2023-02-15T02:30:29.303Z,74.18
2023-02-15T02:31:54.518Z,74.19
2023-02-15T02:33:33.076Z,74.11
2023-02-15T02:34:40.707Z,74.10
2023-02-15T02:35:51.314Z,74.18
2023-02-15T02:36:59.093Z,74.25
2023-02-15T02:38:10.105Z,74.24
2023-02-15T02:39:24.003Z,74.28
2023-02-15T02:40:35.606Z,74.08
2023-02-15T02:41:46.553Z,74.23
2023-02-15T02:42:59.928Z,74.31
2023-02-15T02:44:18.926Z,74.23
2023-02-15T02:45:35.952Z,74.36
2023-02-15T02:46:45.875Z,74.42
2023-02-15T02:47:51.217Z,74.36
2023-02-15T02:48:55.816Z,74.36
2023-02-15T02:50:00.932Z,74.55
2023-02-15T02:51:03.469Z,74.55
2023-02-15T02:52:08.284Z,74.40
2023-02-15T02:53:11.711Z,74.45
2023-02-15T02:54:13.380Z,74.43
2023-02-15T02:55:21.870Z,74.69
2023-02-15T02:56:28.806Z,74.68
2023-02-15T02:57:34.369Z,74.54
2023-02-15T02:58:45.420Z,74.70
2023-02-15T02:59:48.660Z,74.55
2023-02-15T03:00:55.320Z,74.69
2023-02-15T03:02:03.038Z,74.75
2023-02-15T03:03:10.921Z,74.58
2023-02-15T03:04:16.569Z,74.55
2023-02-15T03:05:23.368Z,74.77
2023-02-15T03:06:29.996Z,74.80
2023-02-15T03:07:33.570Z,74.70
2023-02-15T03:08:50.687Z,74.65
2023-02-15T03:09:55.583Z,74.92
2023-02-15T03:11:08.798Z,74.98
2023-02-15T03:12:13.678Z,74.66
2023-02-15T03:13:17.098Z,74.92
2023-02-15T03:14:20.460Z,74.67
2023-02-15T03:15:26.453Z,74.99
2023-02-15T03:16:28.891Z,74.87
2023-02-15T03:17:34.529Z,74.92
2023-02-15T03:18:39.863Z,74.98
2023-02-15T03:19:47.967Z,75.06
2023-02-15T03:20:51.924Z,74.93
2023-02-15T03:22:04.478Z,74.90
2023-02-15T03:23:13.134Z,75.01
2023-02-15T03:24:18.751Z,75.20
2023-02-15T03:25:23.609Z,75.00
2023-02-15T03:26:28.028Z,74.81
2023-02-15T03:27:36.540Z,75.13
2023-02-15T03:28:53.036Z,74.88
2023-02-15T03:29:58.465Z,74.90
2023-02-15T03:31:04.830Z,75.15
2023-02-15T03:32:17.971Z,74.89
2023-02-15T03:33:31.282Z,74.97
2023-02-15T03:34:35.078Z,74.96
2023-02-15T03:35:54.515Z,75.22
2023-02-15T03:37:01.095Z,75.06
2023-02-15T03:38:06.310Z,75.28
2023-02-15T03:39:19.675Z,75.42
2023-02-15T03:40:47.638Z,75.18
2023-02-15T03:42:00.192Z,75.27
2023-02-15T03:43:16.803Z,75.20
2023-02-15T03:44:32.594Z,75.25
2023-02-15T03:45:55.577Z,75.23
2023-02-15T03:47:05.981Z,75.14
2023-02-15T03:48:19.093Z,75.39
2023-02-15T03:49:29.822Z,75.23
2023-02-15T03:50:55.892Z,75.26
2023-02-15T03:52:02.397Z,75.26
2023-02-15T03:53:09.012Z,75.13
2023-02-15T03:54:14.555Z,75.21
2023-02-15T03:55:16.499Z,75.32
2023-02-15T03:56:19.207Z,75.29
2023-02-15T03:57:41.815Z,75.34
2023-02-15T03:59:02.135Z,75.40
2023-02-15T04:00:30.614Z,75.11
2023-02-15T04:03:25.588Z,75.49
2023-02-15T04:04:36.745Z,75.41
2023-02-15T04:05:47.318Z,75.17
2023-02-15T04:06:48.934Z,75.43
2023-02-15T04:07:51.515Z,75.23
2023-02-15T04:09:21.777Z,75.54
2023-02-15T04:10:49.231Z,75.24
2023-02-15T04:11:50.909Z,75.46
2023-02-15T04:12:53.470Z,75.29
2023-02-15T04:16:11.905Z,75.23
2023-02-15T04:17:13.437Z,75.27
2023-02-15T04:18:16.303Z,75.47
2023-02-15T04:19:36.746Z,75.42
2023-02-15T04:20:57.097Z,75.60
2023-02-15T04:22:21.245Z,75.52
2023-02-15T04:23:51.600Z,75.41
2023-02-15T04:25:13.262Z,75.42
2023-02-15T04:26:16.318Z,75.43
2023-02-15T04:27:17.930Z,75.35
2023-02-15T04:28:20.464Z,75.70
2023-02-15T04:29:23.473Z,75.66
2023-02-15T04:30:27.500Z,75.45
2023-02-15T04:31:29.216Z,75.73
2023-02-15T04:32:31.709Z,75.43
2023-02-15T04:33:36.715Z,75.58
2023-02-15T04:34:38.595Z,75.75
2023-02-15T04:35:41.990Z,75.58
2023-02-15T04:36:43.744Z,75.79
2023-02-15T04:37:46.667Z,75.57
2023-02-15T04:38:48.249Z,75.71
2023-02-15T04:39:51.508Z,75.70
2023-02-15T04:40:54.294Z,75.62
2023-02-15T04:41:55.827Z,75.70
2023-02-15T04:42:58.286Z,75.72
2023-02-15T04:44:01.492Z,75.79
2023-02-15T04:45:14.373Z,75.90
2023-02-15T04:46:26.152Z,75.76
2023-02-15T04:47:37.584Z,75.70
2023-02-15T04:48:40.527Z,75.51
2023-02-15T04:49:43.330Z,75.84
2023-02-15T04:50:45.200Z,75.75
2023-02-15T04:51:47.718Z,75.64
2023-02-15T04:52:49.276Z,75.63
2023-02-15T04:53:53.340Z,75.66
2023-02-15T04:54:54.908Z,75.96
2023-02-15T04:55:57.394Z,75.84
2023-02-15T04:57:03.625Z,75.70
2023-02-15T04:58:06.225Z,75.59
2023-02-15T04:59:17.960Z,75.54
2023-02-15T05:00:21.091Z,75.75
2023-02-15T05:01:27.821Z,75.63
2023-02-15T05:02:30.342Z,75.36
2023-02-15T05:03:31.898Z,75.54
2023-02-15T05:04:35.781Z,75.66
2023-02-15T05:05:37.335Z,75.68
2023-02-15T05:06:39.829Z,75.54
2023-02-15T05:07:41.452Z,75.58
2023-02-15T05:08:44.025Z,75.75
2023-02-15T05:09:45.596Z,75.68
2023-02-15T05:10:49.698Z,75.87
2023-02-15T05:11:51.242Z,75.87
2023-02-15T05:12:53.705Z,75.79
2023-02-15T05:13:55.262Z,75.81
2023-02-15T05:14:57.753Z,75.80
2023-02-15T05:15:59.568Z,75.94
2023-02-15T05:17:04.098Z,75.63
2023-02-15T05:18:07.231Z,75.71
2023-02-15T05:19:10.876Z,75.97
2023-02-15T05:20:23.855Z,75.72
2023-02-15T05:21:26.641Z,76.08
2023-02-15T05:22:28.429Z,75.80
2023-02-15T05:23:31.140Z,75.86
2023-02-15T05:24:51.229Z,75.90
2023-02-15T05:26:11.511Z,75.82
2023-02-15T05:27:32.049Z,75.77
2023-02-15T05:28:34.859Z,75.98
2023-02-15T05:29:36.431Z,75.75
2023-02-15T05:30:40.674Z,75.80
2023-02-15T05:31:48.153Z,75.94
2023-02-15T05:32:51.538Z,75.68
2023-02-15T05:34:00.107Z,75.79
2023-02-15T05:35:06.310Z,75.71
2023-02-15T05:36:20.201Z,75.83
2023-02-15T05:37:22.020Z,75.87
2023-02-15T05:38:24.487Z,75.82
2023-02-15T05:39:25.976Z,75.82
2023-02-15T05:40:28.644Z,75.70
2023-02-15T05:41:30.174Z,75.75
2023-02-15T05:42:32.657Z,75.79
2023-02-15T05:43:34.773Z,75.61
2023-02-15T05:44:38.886Z,75.95
2023-02-15T05:45:40.685Z,75.98
2023-02-15T05:46:43.269Z,75.83
2023-02-15T05:47:49.681Z,75.79
2023-02-15T05:48:52.225Z,76.02
2023-02-15T05:49:53.811Z,75.85
2023-02-15T05:51:00.500Z,75.81
2023-02-15T05:52:03.845Z,75.72
2023-02-15T05:53:06.361Z,75.92
2023-02-15T05:54:07.906Z,75.82
2023-02-15T05:55:10.628Z,75.87
2023-02-15T05:56:22.184Z,75.91
2023-02-15T05:57:24.737Z,75.81
2023-02-15T05:58:27.074Z,76.01
2023-02-15T05:59:29.798Z,75.89
2023-02-15T06:00:31.483Z,75.77
2023-02-15T06:01:35.092Z,75.93
2023-02-15T06:02:37.698Z,76.05
2023-02-15T06:03:40.397Z,75.76
2023-02-15T06:04:46.385Z,76.06
2023-02-15T06:05:48.895Z,76.03
2023-02-15T06:06:50.473Z,75.89
2023-02-15T06:08:01.214Z,76.11
2023-02-15T06:09:14.730Z,75.79
2023-02-15T06:10:18.104Z,75.92
2023-02-15T06:11:20.298Z,75.81
2023-02-15T06:12:22.898Z,76.01
2023-02-15T06:13:24.490Z,76.06
2023-02-15T06:14:27.318Z,75.83
2023-02-15T06:15:28.892Z,75.77
2023-02-15T06:16:31.579Z,76.00
2023-02-15T06:17:34.063Z,75.69
2023-02-15T06:18:35.748Z,75.75
2023-02-15T06:19:38.311Z,75.95
2023-02-15T06:20:39.971Z,76.00
2023-02-15T06:21:43.196Z,75.98
2023-02-15T06:22:45.742Z,75.90
2023-02-15T06:23:48.742Z,75.85
2023-02-15T06:25:01.262Z,75.95
2023-02-15T06:26:04.033Z,75.92
2023-02-15T06:27:06.790Z,75.80
2023-02-15T06:28:08.521Z,75.86
2023-02-15T06:29:11.426Z,75.89
2023-02-15T06:30:15.192Z,75.77
2023-02-15T06:31:17.092Z,75.84
2023-02-15T06:32:19.674Z,75.91
2023-02-15T06:33:24.204Z,75.92
2023-02-15T06:34:26.697Z,75.85
2023-02-15T06:35:28.580Z,75.92
2023-02-15T06:36:41.224Z,75.89
2023-02-15T06:37:47.334Z,76.01
2023-02-15T06:38:50.600Z,76.00
2023-02-15T06:40:04.003Z,75.96
2023-02-15T06:41:05.859Z,76.06
2023-02-15T06:42:08.447Z,75.87
2023-02-15T06:43:10.017Z,75.92
2023-02-15T06:44:12.547Z,75.90
2023-02-15T06:45:14.336Z,75.98
2023-02-15T06:46:16.952Z,76.28
2023-02-15T06:47:18.502Z,75.97
2023-02-15T06:48:21.019Z,75.90
2023-02-15T06:49:23.211Z,76.01
2023-02-15T06:50:35.935Z,75.89
2023-02-15T06:51:45.807Z,75.72
2023-02-15T06:52:48.438Z,75.88
2023-02-15T06:53:51.460Z,75.76
2023-02-15T06:54:54.125Z,75.80
2023-02-15T06:56:01.745Z,76.04
2023-02-15T06:57:04.564Z,76.01
2023-02-15T06:58:06.054Z,75.77
2023-02-15T06:59:08.537Z,76.27
2023-02-15T07:00:11.379Z,76.13
2023-02-15T07:01:25.412Z,75.89
2023-02-15T07:02:29.800Z,76.04
2023-02-15T07:03:32.976Z,75.97
2023-02-15T07:04:36.375Z,76.03
2023-02-15T07:05:49.657Z,75.96
2023-02-15T07:06:53.995Z,76.01
2023-02-15T07:07:55.906Z,76.04
2023-02-15T07:08:59.746Z,75.93
2023-02-15T07:10:02.373Z,76.03
2023-02-15T07:11:19.187Z,76.10
2023-02-15T07:12:39.076Z,76.03
2023-02-15T07:13:43.474Z,75.92
2023-02-15T07:14:45.954Z,75.87
2023-02-15T07:15:49.712Z,75.99
2023-02-15T07:16:51.232Z,75.88
2023-02-15T07:17:53.775Z,75.95
2023-02-15T07:18:55.383Z,76.07
2023-02-15T07:19:58.165Z,75.86
2023-02-15T07:20:59.771Z,76.06
2023-02-15T07:22:02.947Z,76.07
2023-02-15T07:23:14.481Z,75.98
2023-02-15T07:24:18.568Z,75.96
2023-02-15T07:25:21.384Z,76.00
2023-02-15T07:26:22.921Z,76.07
2023-02-15T07:27:25.767Z,75.98
2023-02-15T07:28:28.283Z,75.79
2023-02-15T07:29:30.892Z,75.96
2023-02-15T07:30:33.509Z,75.92
2023-02-15T07:31:35.822Z,75.92
2023-02-15T07:32:58.767Z,75.83
2023-02-15T07:34:00.319Z,75.83
2023-02-15T07:35:03.085Z,75.73
2023-02-15T07:36:05.608Z,75.84
2023-02-15T07:37:08.359Z,75.64
2023-02-15T07:38:09.889Z,75.65
2023-02-15T07:39:13.299Z,75.82
2023-02-15T07:40:17.330Z,75.69
2023-02-15T07:41:19.924Z,75.76
2023-02-15T07:42:23.079Z,75.69
2023-02-15T07:43:38.437Z,75.65
2023-02-15T07:44:51.172Z,75.68
2023-02-15T07:45:53.056Z,75.64
2023-02-15T07:46:55.673Z,75.71
2023-02-15T07:47:57.206Z,75.64
2023-02-15T07:49:00.163Z,75.68
2023-02-15T07:50:02.938Z,75.60
2023-02-15T07:51:07.901Z,75.32
2023-02-15T07:52:10.885Z,75.44
2023-02-15T07:53:13.408Z,75.34
2023-02-15T07:54:14.923Z,75.36
2023-02-15T07:55:19.500Z,75.33
2023-02-15T07:56:22.054Z,75.23
2023-02-15T07:57:24.164Z,75.19
2023-02-15T07:58:47.761Z,75.26
2023-02-15T07:59:57.017Z,75.23
2023-02-15T08:01:09.315Z,75.14
2023-02-15T08:02:21.804Z,75.17
2023-02-15T08:03:25.554Z,74.93
2023-02-15T08:04:28.282Z,75.18
2023-02-15T08:05:29.787Z,74.91
2023-02-15T08:06:34.409Z,74.88
2023-02-15T08:07:36.932Z,74.69
2023-02-15T08:08:38.621Z,74.71
2023-02-15T08:09:41.160Z,74.70
2023-02-15T08:11:02.556Z,74.55
2023-02-15T08:12:05.810Z,74.44
2023-02-15T08:13:07.760Z,74.42
2023-02-15T08:14:11.851Z,74.21
2023-02-15T08:15:13.607Z,74.53
2023-02-15T08:16:16.424Z,74.34
2023-02-15T08:17:19.273Z,74.21
2023-02-15T08:18:28.641Z,74.30
2023-02-15T08:19:33.364Z,74.20
2023-02-15T08:20:34.873Z,74.30
2023-02-15T08:21:39.251Z,73.91
2023-02-15T08:22:40.877Z,74.18
2023-02-15T08:23:43.449Z,73.93
2023-02-15T08:24:46.069Z,73.97
2023-02-15T08:25:48.909Z,74.05
2023-02-15T08:26:52.579Z,73.75
2023-02-15T08:27:54.152Z,74.06
2023-02-15T08:29:08.823Z,73.84
2023-02-15T08:30:21.755Z,73.63
2023-02-15T08:31:25.070Z,73.73
2023-02-15T08:32:27.658Z,73.70
2023-02-15T08:33:29.316Z,73.76
2023-02-15T08:34:34.572Z,73.49
2023-02-15T08:35:36.095Z,73.57
2023-02-15T08:36:39.100Z,73.59
2023-02-15T08:37:40.631Z,73.38
2023-02-15T08:38:44.425Z,73.36
2023-02-15T08:39:46.944Z,73.42
2023-02-15T08:40:50.840Z,73.36
2023-02-15T08:41:53.359Z,73.33
2023-02-15T08:43:02.185Z,73.25
2023-02-15T08:44:07.570Z,73.23
2023-02-15T08:45:09.643Z,73.01
2023-02-15T08:46:23.462Z,72.92
2023-02-15T08:47:26.922Z,73.17
2023-02-15T08:48:28.939Z,72.71
2023-02-15T08:49:31.866Z,72.81
2023-02-15T08:50:33.383Z,72.69
2023-02-15T08:51:38.768Z,72.89
2023-02-15T08:52:41.239Z,72.80
2023-02-15T08:53:46.487Z,72.52
2023-02-15T08:54:49.120Z,72.74
2023-02-15T08:55:57.925Z,72.48
2023-02-15T08:57:01.743Z,72.54
2023-02-15T08:58:12.201Z,72.50
2023-02-15T08:59:17.388Z,72.28
2023-02-15T09:00:19.940Z,72.49
2023-02-15T09:01:29.578Z,72.33
2023-02-15T09:02:31.206Z,72.39
2023-02-15T09:03:33.904Z,72.23
2023-02-15T09:04:36.699Z,72.21
2023-02-15T09:05:38.280Z,72.24
2023-02-15T09:06:49.337Z,72.08
2023-02-15T09:07:51.135Z,72.25
2023-02-15T09:08:54.563Z,72.26
2023-02-15T09:09:57.058Z,71.91
2023-02-15T09:11:09.539Z,71.92
2023-02-15T09:12:12.028Z,71.97
2023-02-15T09:13:14.135Z,71.81
2023-02-15T09:14:18.713Z,71.86
2023-02-15T09:15:20.494Z,71.99
2023-02-15T09:16:24.445Z,71.74
2023-02-15T09:17:26.473Z,72.05
2023-02-15T09:18:40.758Z,71.59
2023-02-15T09:19:53.244Z,71.60
2023-02-15T09:20:56.861Z,71.58
2023-02-15T09:21:59.479Z,71.68
2023-02-15T09:23:01.048Z,71.39
2023-02-15T09:24:06.509Z,71.30
2023-02-15T09:25:08.554Z,71.28
2023-02-15T09:26:14.228Z,71.60
2023-02-15T09:27:17.304Z,71.51
2023-02-15T09:28:18.936Z,71.43
2023-02-15T09:29:21.746Z,71.29
2023-02-15T09:30:23.422Z,71.22
2023-02-15T09:31:28.187Z,71.47
2023-02-15T09:32:31.027Z,71.13
2023-02-15T09:33:46.639Z,71.29
2023-02-15T09:34:49.962Z,71.36
2023-02-15T09:35:52.492Z,71.12
2023-02-15T09:36:55.066Z,70.84
2023-02-15T09:37:56.573Z,70.98
2023-02-15T09:39:40.924Z,70.86
2023-02-15T09:40:55.059Z,70.91
2023-02-15T09:42:13.675Z,70.68
2023-02-15T09:43:29.475Z,70.82
2023-02-15T09:44:48.665Z,70.50
2023-02-15T09:46:13.253Z,70.82
2023-02-15T09:47:43.835Z,70.63
2023-02-15T09:48:52.725Z,70.60
2023-02-15T09:50:05.122Z,70.53
2023-02-15T09:51:24.962Z,70.49
2023-02-15T09:52:42.400Z,70.65
2023-02-15T09:54:03.325Z,70.60
2023-02-15T09:55:23.257Z,70.57
2023-02-15T09:56:40.408Z,70.50
2023-02-15T09:57:51.791Z,70.39
2023-02-15T09:59:04.683Z,70.39
2023-02-15T10:00:18.499Z,70.22
2023-02-15T10:01:41.268Z,70.04
2023-02-15T10:03:05.296Z,70.08
2023-02-15T10:04:32.776Z,70.16
2023-02-15T10:05:45.584Z,70.09
2023-02-15T10:07:02.454Z,69.94
2023-02-15T10:08:38.758Z,69.84
2023-02-15T10:09:55.295Z,69.98
2023-02-15T10:11:21.625Z,69.45
2023-02-15T10:12:39.197Z,69.43
2023-02-15T10:13:50.753Z,69.57
2023-02-15T10:15:26.041Z,69.65
2023-02-15T10:16:36.833Z,69.29
2023-02-15T10:17:55.083Z,69.42
2023-02-15T10:19:04.473Z,69.14
2023-02-15T10:20:25.617Z,69.40
2023-02-15T10:21:47.585Z,68.82
2023-02-15T10:23:10.230Z,69.26
2023-02-15T10:24:31.023Z,69.37
2023-02-15T10:25:44.081Z,69.01
2023-02-15T10:26:48.710Z,68.71
2023-02-15T10:27:51.958Z,68.78
2023-02-15T10:29:02.849Z,68.69
2023-02-15T10:30:11.944Z,68.76
2023-02-15T10:31:24.327Z,68.61
2023-02-15T10:32:30.189Z,68.13
2023-02-15T10:33:41.673Z,67.98
2023-02-15T10:34:52.375Z,68.16
2023-02-15T10:36:07.332Z,67.96
2023-02-15T10:37:37.698Z,68.10
2023-02-15T10:38:44.616Z,68.08
2023-02-15T10:39:57.679Z,67.79
2023-02-15T10:41:11.027Z,67.82
2023-02-15T10:42:22.681Z,68.12
2023-02-15T10:43:43.231Z,67.72
2023-02-15T10:45:05.097Z,67.72
2023-02-15T10:46:19.582Z,67.70
2023-02-15T10:47:57.539Z,67.79
2023-02-15T10:49:22.602Z,67.56
2023-02-15T10:50:42.402Z,67.58
2023-02-15T10:52:00.354Z,67.61
2023-02-15T10:53:27.924Z,67.31
2023-02-15T10:54:38.627Z,67.19
2023-02-15T10:55:53.751Z,67.43
2023-02-15T10:57:04.674Z,67.36
2023-02-15T10:58:18.371Z,67.39
2023-02-15T10:59:40.640Z,67.45
2023-02-15T11:00:48.482Z,67.35
2023-02-15T11:01:56.493Z,67.03
2023-02-15T11:03:18.959Z,67.07
2023-02-15T11:04:43.916Z,67.22
2023-02-15T11:05:56.490Z,67.14
2023-02-15T11:07:04.072Z,66.71
2023-02-15T11:08:10.290Z,66.76
2023-02-15T11:09:16.433Z,66.67
2023-02-15T11:10:28.947Z,66.85
2023-02-15T11:11:36.147Z,66.43
2023-02-15T11:12:47.372Z,66.45
2023-02-15T11:13:53.808Z,66.61
2023-02-15T11:15:02.518Z,66.13
2023-02-15T11:16:10.370Z,66.31
2023-02-15T11:17:17.398Z,66.19
2023-02-15T11:18:28.232Z,66.15
2023-02-15T11:19:35.392Z,65.94
2023-02-15T11:20:40.939Z,65.97
2023-02-15T11:21:47.509Z,66.02
2023-02-15T11:22:52.053Z,66.03
2023-02-15T11:23:56.290Z,65.56
2023-02-15T11:25:00.675Z,66.06
2023-02-15T11:26:06.921Z,65.72
2023-02-15T11:27:21.764Z,65.85
2023-02-15T11:28:30.782Z,65.40
2023-02-15T11:29:37.451Z,65.59
2023-02-15T11:30:45.917Z,65.39
2023-02-15T11:31:52.994Z,65.30
2023-02-15T11:32:59.510Z,65.59
2023-02-15T11:34:08.161Z,65.41
2023-02-15T11:35:22.518Z,65.36
2023-02-15T11:36:29.324Z,65.35
2023-02-15T11:37:36.727Z,65.25
2023-02-15T11:38:44.228Z,65.61
2023-02-15T11:39:55.982Z,65.32
2023-02-15T11:41:04.815Z,65.17
2023-02-15T11:42:13.923Z,65.21
2023-02-15T11:43:21.304Z,65.34
2023-02-15T11:44:27.942Z,65.24
2023-02-15T11:45:31.511Z,64.96
2023-02-15T11:46:34.551Z,64.89
2023-02-15T11:47:37.504Z,65.00
2023-02-15T11:48:40.949Z,64.95
2023-02-15T11:49:42.515Z,64.90
2023-02-15T11:50:46.518Z,64.74
2023-02-15T11:51:48.384Z,64.79
2023-02-15T11:52:51.687Z,64.81
2023-02-15T11:53:54.510Z,64.51
2023-02-15T11:54:56.127Z,64.54
2023-02-15T11:55:58.800Z,64.39
2023-02-15T11:57:05.308Z,64.51
2023-02-15T11:58:27.072Z,64.38
2023-02-15T11:59:34.327Z,64.29
2023-02-15T12:00:40.409Z,64.37
2023-02-15T12:01:46.677Z,64.33
2023-02-15T12:02:55.430Z,64.13
2023-02-15T12:04:01.022Z,64.14
2023-02-15T12:05:09.490Z,64.10
2023-02-15T12:06:18.044Z,64.34
2023-02-15T12:07:26.599Z,64.12
2023-02-15T12:08:40.069Z,64.04
2023-02-15T12:09:47.814Z,63.96
2023-02-15T12:11:00.543Z,63.77
2023-02-15T12:12:24.609Z,63.72
2023-02-15T12:13:27.033Z,63.79
2023-02-15T12:14:49.205Z,63.82
2023-02-15T12:15:54.738Z,63.60
2023-02-15T12:16:58.459Z,63.74
2023-02-15T12:18:01.390Z,63.47
2023-02-15T12:19:04.390Z,63.69
2023-02-15T12:20:22.502Z,63.55
2023-02-15T12:21:30.850Z,63.42
2023-02-15T12:22:37.053Z,63.13
2023-02-15T12:23:45.430Z,63.11
2023-02-15T12:24:49.524Z,63.23
2023-02-15T12:25:54.435Z,63.10
2023-02-15T12:27:00.941Z,63.18
2023-02-15T12:28:27.582Z,63.14
2023-02-15T12:29:36.787Z,63.04
2023-02-15T12:30:39.835Z,62.89
2023-02-15T12:31:45.664Z,63.00
2023-02-15T12:32:52.545Z,62.57
2023-02-15T12:33:59.095Z,62.38
2023-02-15T12:35:09.291Z,62.45
2023-02-15T12:36:14.666Z,62.25
2023-02-15T12:37:20.138Z,62.17
2023-02-15T12:38:26.247Z,62.20
2023-02-15T12:39:29.142Z,61.90
2023-02-15T12:40:32.471Z,62.03
2023-02-15T12:41:35.226Z,62.05
2023-02-15T12:42:45.375Z,61.84
2023-02-15T12:43:47.958Z,61.98
2023-02-15T12:45:00.916Z,62.02
2023-02-15T12:46:22.861Z,61.88
2023-02-15T12:47:30.451Z,61.88
2023-02-15T12:48:40.737Z,61.89
2023-02-15T12:49:48.978Z,61.98
2023-02-15T12:50:56.222Z,61.76
2023-02-15T12:52:00.559Z,61.64
2023-02-15T12:53:09.875Z,61.60
2023-02-15T12:54:41.043Z,61.52
2023-02-15T12:55:52.717Z,61.83
2023-02-15T12:56:55.238Z,61.80
2023-02-15T12:58:08.062Z,61.74
2023-02-15T12:59:15.516Z,61.60
2023-02-15T13:00:32.617Z,61.63
2023-02-15T13:01:35.756Z,61.67
2023-02-15T13:02:44.382Z,61.53
2023-02-15T13:04:16.682Z,61.50
2023-02-15T13:05:27.074Z,61.47
2023-02-15T13:06:34.062Z,61.53
2023-02-15T13:07:36.609Z,61.42
2023-02-15T13:08:48.079Z,61.21
2023-02-15T13:09:51.777Z,61.34
2023-02-15T13:10:56.978Z,61.05
2023-02-15T13:12:12.515Z,60.87
2023-02-15T13:13:22.739Z,61.10
2023-02-15T13:14:33.122Z,61.10
2023-02-15T13:15:39.233Z,60.85
2023-02-15T13:16:42.819Z,60.89
2023-02-15T13:17:45.414Z,60.76
2023-02-15T13:18:52.370Z,60.78
2023-02-15T13:19:55.299Z,60.67
2023-02-15T13:21:14.813Z,60.47
2023-02-15T13:22:24.383Z,60.48
2023-02-15T13:23:30.702Z,60.43
2023-02-15T13:24:36.858Z,60.25
2023-02-15T13:25:51.059Z,60.32
2023-02-15T13:27:12.906Z,60.22
2023-02-15T13:28:20.054Z,60.17
2023-02-15T13:29:25.139Z,60.06
2023-02-15T13:30:33.504Z,60.05
2023-02-15T13:31:37.171Z,60.09
2023-02-15T13:32:43.934Z,59.94
2023-02-15T13:33:50.327Z,59.90
2023-02-15T13:34:55.957Z,59.79
2023-02-15T13:36:08.869Z,59.76
2023-02-15T13:37:18.437Z,59.67
2023-02-15T13:38:51.349Z,59.58
2023-02-15T13:40:03.578Z,59.39
2023-02-15T13:41:11.446Z,59.52
2023-02-15T13:42:23.055Z,59.51
2023-02-15T13:43:37.397Z,59.28
2023-02-15T13:45:04.489Z,59.42
2023-02-15T13:46:23.579Z,59.25
2023-02-15T13:47:33.551Z,59.11
2023-02-15T13:48:51.007Z,59.28
2023-02-15T13:50:12.589Z,59.32
2023-02-15T13:51:22.965Z,59.40
2023-02-15T13:52:29.333Z,59.33
2023-02-15T13:54:02.746Z,59.25
2023-02-15T13:55:31.311Z,59.36
2023-02-15T13:56:47.812Z,59.28
2023-02-15T13:58:08.677Z,59.47
2023-02-15T13:59:33.373Z,59.20
2023-02-15T14:00:46.427Z,59.29
2023-02-15T14:01:57.618Z,59.28
2023-02-15T14:03:42.347Z,59.12
2023-02-15T14:05:00.250Z,58.91
2023-02-15T14:06:17.131Z,59.07
2023-02-15T14:07:31.033Z,58.96
2023-02-15T14:08:54.204Z,59.31
2023-02-15T14:10:11.425Z,58.95
2023-02-15T14:11:22.400Z,58.89
2023-02-15T14:12:43.227Z,59.12
2023-02-15T14:13:59.700Z,58.84
2023-02-15T14:15:27.903Z,58.51
2023-02-15T14:16:41.237Z,58.67
2023-02-15T14:17:52.302Z,58.55
2023-02-15T14:19:00.603Z,58.34
2023-02-15T14:20:10.546Z,58.17
2023-02-15T14:21:19.870Z,58.36
2023-02-15T14:22:32.589Z,57.98
2023-02-15T14:23:50.987Z,58.04
2023-02-15T14:25:09.326Z,58.18
2023-02-15T14:26:20.413Z,57.98
2023-02-15T14:27:30.092Z,58.06
2023-02-15T14:28:40.271Z,57.97
2023-02-15T14:29:49.949Z,57.94
2023-02-15T14:30:53.593Z,58.02
2023-02-15T14:31:59.530Z,57.98
2023-02-15T14:33:07.578Z,57.90
2023-02-15T14:34:20.959Z,57.85
2023-02-15T14:35:27.945Z,57.92
2023-02-15T14:36:32.340Z,57.92
2023-02-15T14:37:45.098Z,57.91
2023-02-15T14:39:35.569Z,58.01
2023-02-15T14:41:04.117Z,58.11
2023-02-15T14:42:15.210Z,57.97